sensor_id;sensor_type;location;lat;lon;timestamp;pressure;altitude;pressure_sealevel;temperature;humidity
49877;BME280;35771;48.978;9.294;2023-03-03T07:31:26;99358.50;;;-0.49;100.00
49877;BME280;35771;48.978;9.294;2023-03-03T07:33:54;99384.94;;;-0.21;100.00
49877;BME280;35771;48.978;9.294;2023-03-03T07:36:26;99377.97;;;-0.10;100.00
49877;BME280;35771;48.978;9.294;2023-03-03T07:38:56;99397.25;;;0.06;100.00
49877;BME280;35771;48.978;9.294;2023-03-03T07:41:24;99392.88;;;0.05;100.00
49877;BME280;35771;48.978;9.294;2023-03-03T07:43:51;99399.31;;;0.27;100.00
49877;BME280;35771;48.978;9.294;2023-03-03T07:46:26;99385.09;;;0.26;100.00
49877;BME280;35771;48.978;9.294;2023-03-03T07:48:55;99394.03;;;0.38;100.00
49877;BME280;35771;48.978;9.294;2023-03-03T07:51:24;99405.06;;;0.33;100.00
49877;BME280;35771;48.978;9.294;2023-03-03T07:53:52;99395.91;;;0.25;100.00
49877;BME280;35771;48.978;9.294;2023-03-03T07:56:26;99394.63;;;0.17;100.00
49877;BME280;35771;48.978;9.294;2023-03-03T07:58:54;99389.47;;;0.27;100.00
49877;BME280;35771;48.978;9.294;2023-03-03T08:01:35;99400.44;;;0.35;100.00
49877;BME280;35771;48.978;9.294;2023-03-03T08:04:18;99385.88;;;0.40;100.00
49877;BME280;35771;48.978;9.294;2023-03-03T08:06:49;99388.72;;;0.25;100.00
49877;BME280;35771;48.978;9.294;2023-03-03T08:09:40;99416.91;;;0.42;100.00
49877;BME280;35771;48.978;9.294;2023-03-03T08:12:38;99393.09;;;0.50;100.00
49877;BME280;35771;48.978;9.294;2023-03-03T08:15:23;99388.81;;;0.48;100.00
49877;BME280;35771;48.978;9.294;2023-03-03T08:17:53;99383.66;;;0.58;100.00
49877;BME280;35771;48.978;9.294;2023-03-03T08:20:45;99381.13;;;0.67;100.00
49877;BME280;35771;48.978;9.294;2023-03-03T08:23:13;99392.22;;;0.74;100.00
49877;BME280;35771;48.978;9.294;2023-03-03T08:25:40;99411.88;;;0.97;100.00
49877;BME280;35771;48.978;9.294;2023-03-03T08:28:07;99405.91;;;1.05;100.00
49877;BME280;35771;48.978;9.294;2023-03-03T08:30:33;99398.38;;;0.99;100.00
49877;BME280;35771;48.978;9.294;2023-03-03T08:33:01;99407.88;;;1.03;100.00
49877;BME280;35771;48.978;9.294;2023-03-03T08:35:28;99395.69;;;0.99;100.00
49877;BME280;35771;48.978;9.294;2023-03-03T08:37:54;99404.72;;;1.09;100.00
49877;BME280;35771;48.978;9.294;2023-03-03T08:40:21;99412.31;;;1.27;100.00
49877;BME280;35771;48.978;9.294;2023-03-03T08:42:47;99402.56;;;1.26;100.00
49877;BME280;35771;48.978;9.294;2023-03-03T08:45:14;99411.34;;;1.39;100.00
49877;BME280;35771;48.978;9.294;2023-03-03T08:47:41;99403.31;;;1.39;100.00
49877;BME280;35771;48.978;9.294;2023-03-03T08:50:11;99419.00;;;1.55;100.00
49877;BME280;35771;48.978;9.294;2023-03-03T08:52:39;99400.03;;;1.47;100.00
49877;BME280;35771;48.978;9.294;2023-03-03T08:55:06;99420.84;;;1.77;100.00
49877;BME280;35771;48.978;9.294;2023-03-03T08:57:33;99399.31;;;1.67;100.00
49877;BME280;35771;48.978;9.294;2023-03-03T08:59:59;99413.91;;;1.74;100.00
49877;BME280;35771;48.978;9.294;2023-03-03T09:02:26;99402.81;;;1.79;100.00
49877;BME280;35771;48.978;9.294;2023-03-03T09:04:52;99408.66;;;1.84;100.00
49877;BME280;35771;48.978;9.294;2023-03-03T09:07:20;99390.50;;;1.88;100.00
49877;BME280;35771;48.978;9.294;2023-03-03T09:09:47;99412.66;;;2.12;100.00
49877;BME280;35771;48.978;9.294;2023-03-03T09:12:16;99423.63;;;2.09;98.19
49877;BME280;35771;48.978;9.294;2023-03-03T09:14:43;99424.47;;;2.10;99.35
49877;BME280;35771;48.978;9.294;2023-03-03T09:17:29;99431.88;;;2.29;100.00
49877;BME280;35771;48.978;9.294;2023-03-03T09:19:59;99434.03;;;2.46;99.41
49877;BME280;35771;48.978;9.294;2023-03-03T09:22:35;99421.13;;;2.40;96.83
49877;BME280;35771;48.978;9.294;2023-03-03T09:25:02;99412.69;;;2.45;96.06
49877;BME280;35771;48.978;9.294;2023-03-03T09:27:39;99411.34;;;2.51;94.70
49877;BME280;35771;48.978;9.294;2023-03-03T09:30:26;99430.97;;;2.83;94.11
49877;BME280;35771;48.978;9.294;2023-03-03T09:32:56;99437.28;;;2.94;92.44
49877;BME280;35771;48.978;9.294;2023-03-03T09:35:34;99413.41;;;3.00;87.89
49877;BME280;35771;48.978;9.294;2023-03-03T09:38:19;99411.78;;;2.88;87.37
49877;BME280;35771;48.978;9.294;2023-03-03T09:41:00;99432.84;;;3.04;88.22
49877;BME280;35771;48.978;9.294;2023-03-03T09:43:36;99414.53;;;2.98;87.04
49877;BME280;35771;48.978;9.294;2023-03-03T09:46:11;99443.31;;;3.28;86.59
49877;BME280;35771;48.978;9.294;2023-03-03T09:48:47;99433.22;;;3.21;86.86
49877;BME280;35771;48.978;9.294;2023-03-03T09:51:40;99441.00;;;3.24;87.00
49877;BME280;35771;48.978;9.294;2023-03-03T09:54:25;99430.22;;;3.14;87.22
49877;BME280;35771;48.978;9.294;2023-03-03T09:57:04;99429.63;;;3.31;87.63
49877;BME280;35771;48.978;9.294;2023-03-03T09:59:43;99443.88;;;3.53;86.45
49877;BME280;35771;48.978;9.294;2023-03-03T10:02:26;99429.84;;;3.70;85.19
49877;BME280;35771;48.978;9.294;2023-03-03T10:05:18;99450.41;;;3.81;80.71
49877;BME280;35771;48.978;9.294;2023-03-03T10:08:00;99434.53;;;3.78;80.26
49877;BME280;35771;48.978;9.294;2023-03-03T10:10:55;99443.84;;;3.74;80.45
49877;BME280;35771;48.978;9.294;2023-03-03T10:13:40;99435.09;;;3.82;80.93
49877;BME280;35771;48.978;9.294;2023-03-03T10:16:20;99426.50;;;3.88;80.15
49877;BME280;35771;48.978;9.294;2023-03-03T10:18:51;99435.78;;;4.15;79.96
49877;BME280;35771;48.978;9.294;2023-03-03T10:21:23;99421.50;;;4.24;79.05
49877;BME280;35771;48.978;9.294;2023-03-03T10:23:55;99412.59;;;4.33;77.41
49877;BME280;35771;48.978;9.294;2023-03-03T10:26:41;99419.31;;;4.58;74.21
49877;BME280;35771;48.978;9.294;2023-03-03T10:29:23;99404.69;;;4.51;73.35
49877;BME280;35771;48.978;9.294;2023-03-03T10:32:11;99434.91;;;4.74;73.34
49877;BME280;35771;48.978;9.294;2023-03-03T10:35:03;99415.19;;;4.74;73.50
49877;BME280;35771;48.978;9.294;2023-03-03T10:37:42;99413.78;;;4.79;73.34
49877;BME280;35771;48.978;9.294;2023-03-03T10:40:19;99398.75;;;4.77;77.56
49877;BME280;35771;48.978;9.294;2023-03-03T10:43:13;99401.59;;;4.85;79.56
49877;BME280;35771;48.978;9.294;2023-03-03T10:45:49;99421.88;;;5.09;70.24
49877;BME280;35771;48.978;9.294;2023-03-03T10:48:31;99409.25;;;5.09;70.21
49877;BME280;35771;48.978;9.294;2023-03-03T10:51:09;99418.16;;;5.20;69.01
49877;BME280;35771;48.978;9.294;2023-03-03T10:53:50;99428.06;;;5.29;69.28
49877;BME280;35771;48.978;9.294;2023-03-03T10:56:34;99401.81;;;5.31;70.36
49877;BME280;35771;48.978;9.294;2023-03-03T10:59:14;99411.78;;;5.68;69.59
49877;BME280;35771;48.978;9.294;2023-03-03T11:01:48;99416.75;;;5.63;67.41
49877;BME280;35771;48.978;9.294;2023-03-03T11:04:42;99416.13;;;5.89;66.28
49877;BME280;35771;48.978;9.294;2023-03-03T11:07:18;99405.28;;;6.08;64.81
49877;BME280;35771;48.978;9.294;2023-03-03T11:09:59;99429.31;;;6.29;63.94
49877;BME280;35771;48.978;9.294;2023-03-03T11:12:33;99419.09;;;6.23;64.04
49877;BME280;35771;48.978;9.294;2023-03-03T11:15:24;99418.25;;;6.23;64.44
49877;BME280;35771;48.978;9.294;2023-03-03T11:18:01;99435.16;;;6.43;63.54
49877;BME280;35771;48.978;9.294;2023-03-03T11:20:35;99429.63;;;6.44;64.50
49877;BME280;35771;48.978;9.294;2023-03-03T11:23:15;99412.19;;;6.38;63.63
49877;BME280;35771;48.978;9.294;2023-03-03T11:25:45;99428.16;;;6.50;63.49
49877;BME280;35771;48.978;9.294;2023-03-03T11:28:26;99404.13;;;6.29;63.38
49877;BME280;35771;48.978;9.294;2023-03-03T11:31:13;99406.81;;;6.57;63.94
49877;BME280;35771;48.978;9.294;2023-03-03T11:33:50;99420.19;;;6.76;63.16
49877;BME280;35771;48.978;9.294;2023-03-03T11:36:24;99412.28;;;6.65;61.44
49877;BME280;35771;48.978;9.294;2023-03-03T11:38:56;99406.09;;;6.72;60.41
49877;BME280;35771;48.978;9.294;2023-03-03T11:41:33;99392.53;;;6.64;61.01
49877;BME280;35771;48.978;9.294;2023-03-03T11:44:10;99389.91;;;6.54;61.27
49877;BME280;35771;48.978;9.294;2023-03-03T11:46:45;99387.13;;;6.46;61.70
49877;BME280;35771;48.978;9.294;2023-03-03T11:49:18;99383.72;;;6.44;62.93
49877;BME280;35771;48.978;9.294;2023-03-03T11:51:53;99384.44;;;6.46;62.53
49877;BME280;35771;48.978;9.294;2023-03-03T11:54:23;99395.22;;;6.46;62.57
49877;BME280;35771;48.978;9.294;2023-03-03T11:56:57;99398.00;;;6.54;63.00
49877;BME280;35771;48.978;9.294;2023-03-03T11:59:49;99385.50;;;6.53;62.92
49877;BME280;35771;48.978;9.294;2023-03-03T12:02:29;99396.44;;;6.88;62.87
49877;BME280;35771;48.978;9.294;2023-03-03T12:05:27;99378.22;;;7.08;60.91
49877;BME280;35771;48.978;9.294;2023-03-03T12:08:03;99383.03;;;7.22;60.25
49877;BME280;35771;48.978;9.294;2023-03-03T12:10:35;99391.88;;;7.24;59.79
49877;BME280;35771;48.978;9.294;2023-03-03T12:13:12;99375.84;;;7.05;58.88
49877;BME280;35771;48.978;9.294;2023-03-03T12:15:47;99375.31;;;7.28;58.69
49877;BME280;35771;48.978;9.294;2023-03-03T12:18:29;99362.28;;;7.23;59.82
49877;BME280;35771;48.978;9.294;2023-03-03T12:21:09;99369.78;;;7.37;58.75
49877;BME280;35771;48.978;9.294;2023-03-03T12:23:49;99366.81;;;7.22;58.89
49877;BME280;35771;48.978;9.294;2023-03-03T12:26:26;99360.75;;;7.29;58.31
49877;BME280;35771;48.978;9.294;2023-03-03T12:28:58;99354.53;;;7.54;58.82
49877;BME280;35771;48.978;9.294;2023-03-03T12:31:38;99370.69;;;7.72;57.89
49877;BME280;35771;48.978;9.294;2023-03-03T12:34:16;99364.28;;;7.82;57.80
49877;BME280;35771;48.978;9.294;2023-03-03T12:37:15;99337.72;;;7.77;58.43
49877;BME280;35771;48.978;9.294;2023-03-03T12:39:50;99354.56;;;8.05;58.20
49877;BME280;35771;48.978;9.294;2023-03-03T12:42:33;99341.16;;;7.95;58.18
49877;BME280;35771;48.978;9.294;2023-03-03T12:45:13;99343.03;;;7.95;58.93
49877;BME280;35771;48.978;9.294;2023-03-03T12:47:46;99344.38;;;7.91;58.62
49877;BME280;35771;48.978;9.294;2023-03-03T12:50:25;99344.72;;;7.96;59.91
49877;BME280;35771;48.978;9.294;2023-03-03T12:53:01;99348.56;;;7.85;58.98
49877;BME280;35771;48.978;9.294;2023-03-03T12:55:38;99356.75;;;8.02;58.61
49877;BME280;35771;48.978;9.294;2023-03-03T12:58:10;99358.97;;;7.98;59.35
49877;BME280;35771;48.978;9.294;2023-03-03T13:00:48;99347.59;;;7.94;59.46
49877;BME280;35771;48.978;9.294;2023-03-03T13:03:29;99320.50;;;7.94;59.16
49877;BME280;35771;48.978;9.294;2023-03-03T13:06:05;99336.09;;;7.92;59.88
49877;BME280;35771;48.978;9.294;2023-03-03T13:08:42;99340.97;;;7.89;59.88
49877;BME280;35771;48.978;9.294;2023-03-03T13:11:41;99342.09;;;7.78;60.59
49877;BME280;35771;48.978;9.294;2023-03-03T13:14:19;99349.63;;;7.92;59.75
49877;BME280;35771;48.978;9.294;2023-03-03T13:17:00;99344.53;;;7.89;60.22
49877;BME280;35771;48.978;9.294;2023-03-03T13:19:31;99352.16;;;7.94;60.38
49877;BME280;35771;48.978;9.294;2023-03-03T13:22:09;99334.88;;;7.87;60.32
49877;BME280;35771;48.978;9.294;2023-03-03T13:24:48;99336.69;;;8.21;60.05
49877;BME280;35771;48.978;9.294;2023-03-03T13:27:22;99320.13;;;8.40;58.34
49877;BME280;35771;48.978;9.294;2023-03-03T13:29:56;99330.84;;;8.50;58.75
49877;BME280;35771;48.978;9.294;2023-03-03T13:32:32;99342.38;;;8.60;58.40
49877;BME280;35771;48.978;9.294;2023-03-03T13:35:06;99355.25;;;8.83;58.07
49877;BME280;35771;48.978;9.294;2023-03-03T13:37:37;99320.84;;;8.67;57.70
49877;BME280;35771;48.978;9.294;2023-03-03T13:40:15;99314.25;;;8.70;58.11
49877;BME280;35771;48.978;9.294;2023-03-03T13:42:46;99313.41;;;8.85;57.42
49877;BME280;35771;48.978;9.294;2023-03-03T13:45:17;99308.16;;;8.67;57.32
49877;BME280;35771;48.978;9.294;2023-03-03T13:47:51;99333.06;;;8.88;57.29
49877;BME280;35771;48.978;9.294;2023-03-03T13:50:23;99314.78;;;8.73;57.68
49877;BME280;35771;48.978;9.294;2023-03-03T13:53:06;99310.19;;;8.82;57.15
49877;BME280;35771;48.978;9.294;2023-03-03T13:55:40;99325.75;;;9.04;57.21
49877;BME280;35771;48.978;9.294;2023-03-03T13:58:15;99296.25;;;9.01;57.07
49877;BME280;35771;48.978;9.294;2023-03-03T14:00:54;99316.78;;;8.96;56.12
49877;BME280;35771;48.978;9.294;2023-03-03T14:03:52;99302.91;;;8.99;56.35
49877;BME280;35771;48.978;9.294;2023-03-03T14:06:21;99304.91;;;9.13;56.79
49877;BME280;35771;48.978;9.294;2023-03-03T14:08:58;99297.28;;;9.17;57.16
49877;BME280;35771;48.978;9.294;2023-03-03T14:11:29;99298.59;;;9.21;55.99
49877;BME280;35771;48.978;9.294;2023-03-03T14:14:02;99290.34;;;8.98;56.47
49877;BME280;35771;48.978;9.294;2023-03-03T14:16:42;99279.28;;;9.08;56.04
49877;BME280;35771;48.978;9.294;2023-03-03T14:19:14;99293.72;;;9.00;56.73
49877;BME280;35771;48.978;9.294;2023-03-03T14:21:48;99302.88;;;9.15;56.99
49877;BME280;35771;48.978;9.294;2023-03-03T14:24:21;99308.59;;;9.29;57.58
49877;BME280;35771;48.978;9.294;2023-03-03T14:26:50;99290.28;;;9.31;56.52
49877;BME280;35771;48.978;9.294;2023-03-03T14:29:21;99288.31;;;9.00;57.67
49877;BME280;35771;48.978;9.294;2023-03-03T14:31:48;99297.28;;;9.09;56.75
49877;BME280;35771;48.978;9.294;2023-03-03T14:34:29;99295.56;;;9.16;57.53
49877;BME280;35771;48.978;9.294;2023-03-03T14:36:59;99299.31;;;9.07;56.79
49877;BME280;35771;48.978;9.294;2023-03-03T14:39:36;99287.78;;;9.04;56.64
49877;BME280;35771;48.978;9.294;2023-03-03T14:42:11;99283.91;;;8.91;57.23
49877;BME280;35771;48.978;9.294;2023-03-03T14:44:49;99290.88;;;8.93;57.53
49877;BME280;35771;48.978;9.294;2023-03-03T14:47:21;99278.97;;;9.02;57.73
49877;BME280;35771;48.978;9.294;2023-03-03T14:49:49;99283.19;;;9.13;57.07
49877;BME280;35771;48.978;9.294;2023-03-03T14:52:24;99306.22;;;9.26;57.06
49877;BME280;35771;48.978;9.294;2023-03-03T14:54:53;99296.22;;;9.18;57.58
49877;BME280;35771;48.978;9.294;2023-03-03T14:57:21;99306.91;;;9.19;57.69
49877;BME280;35771;48.978;9.294;2023-03-03T15:00:26;99288.97;;;9.10;58.30
49877;BME280;35771;48.978;9.294;2023-03-03T15:03:01;99290.75;;;9.43;57.51
49877;BME280;35771;48.978;9.294;2023-03-03T15:05:29;99284.22;;;9.12;57.43
49877;BME280;35771;48.978;9.294;2023-03-03T15:07:57;99273.72;;;9.01;57.85
49877;BME280;35771;48.978;9.294;2023-03-03T15:10:35;99278.94;;;9.11;58.44
49877;BME280;35771;48.978;9.294;2023-03-03T15:13:26;99289.97;;;9.09;58.78
49877;BME280;35771;48.978;9.294;2023-03-03T15:16:02;99269.66;;;9.05;58.94
49877;BME280;35771;48.978;9.294;2023-03-03T15:18:31;99273.34;;;9.20;58.04
49877;BME280;35771;48.978;9.294;2023-03-03T15:21:01;99265.69;;;9.24;58.00
49877;BME280;35771;48.978;9.294;2023-03-03T15:23:47;99269.63;;;9.13;58.27
49877;BME280;35771;48.978;9.294;2023-03-03T15:26:19;99280.44;;;9.30;57.70
49877;BME280;35771;48.978;9.294;2023-03-03T15:28:56;99279.59;;;9.29;57.85
49877;BME280;35771;48.978;9.294;2023-03-03T15:31:37;99273.38;;;9.12;58.06
49877;BME280;35771;48.978;9.294;2023-03-03T15:34:23;99284.19;;;9.20;58.07
49877;BME280;35771;48.978;9.294;2023-03-03T15:36:56;99278.25;;;9.25;58.33
49877;BME280;35771;48.978;9.294;2023-03-03T15:39:31;99267.78;;;9.14;58.79
49877;BME280;35771;48.978;9.294;2023-03-03T15:42:03;99273.03;;;9.07;58.56
49877;BME280;35771;48.978;9.294;2023-03-03T15:44:39;99259.34;;;8.92;59.71
49877;BME280;35771;48.978;9.294;2023-03-03T15:47:22;99291.00;;;9.08;58.50
49877;BME280;35771;48.978;9.294;2023-03-03T15:50:01;99294.09;;;8.89;59.06
49877;BME280;35771;48.978;9.294;2023-03-03T15:52:41;99284.28;;;8.79;58.82
49877;BME280;35771;48.978;9.294;2023-03-03T15:55:23;99269.19;;;8.77;59.50
49877;BME280;35771;48.978;9.294;2023-03-03T15:58:04;99292.22;;;8.97;59.64
49877;BME280;35771;48.978;9.294;2023-03-03T16:00:43;99282.06;;;8.66;59.83
49877;BME280;35771;48.978;9.294;2023-03-03T16:03:15;99278.66;;;8.56;59.20
49877;BME280;35771;48.978;9.294;2023-03-03T16:05:48;99301.38;;;8.63;59.70
49877;BME280;35771;48.978;9.294;2023-03-03T16:08:21;99296.94;;;8.46;60.20
49877;BME280;35771;48.978;9.294;2023-03-03T16:10:51;99307.75;;;8.38;60.71
49877;BME280;35771;48.978;9.294;2023-03-03T16:13:46;99286.06;;;8.13;61.87
49877;BME280;35771;48.978;9.294;2023-03-03T16:16:24;99267.06;;;8.05;61.45
49877;BME280;35771;48.978;9.294;2023-03-03T16:19:09;99294.50;;;8.10;61.65
49877;BME280;35771;48.978;9.294;2023-03-03T16:21:59;99297.84;;;7.95;62.56
49877;BME280;35771;48.978;9.294;2023-03-03T16:24:30;99312.78;;;8.08;62.69
49877;BME280;35771;48.978;9.294;2023-03-03T16:27:05;99299.53;;;7.88;63.31
49877;BME280;35771;48.978;9.294;2023-03-03T16:29:48;99321.72;;;7.92;62.87
49877;BME280;35771;48.978;9.294;2023-03-03T16:32:27;99310.84;;;7.84;63.33
49877;BME280;35771;48.978;9.294;2023-03-03T16:35:02;99317.25;;;7.83;63.53
49877;BME280;35771;48.978;9.294;2023-03-03T16:37:46;99312.25;;;7.61;63.57
49877;BME280;35771;48.978;9.294;2023-03-03T16:40:19;99311.34;;;7.44;64.92
49877;BME280;35771;48.978;9.294;2023-03-03T16:42:48;99331.19;;;7.61;64.91
49877;BME280;35771;48.978;9.294;2023-03-03T16:45:23;99328.78;;;7.50;64.94
49877;BME280;35771;48.978;9.294;2023-03-03T16:48:04;99337.91;;;7.49;65.36
49877;BME280;35771;48.978;9.294;2023-03-03T16:50:39;99318.31;;;7.21;66.36
49877;BME280;35771;48.978;9.294;2023-03-03T16:53:17;99321.28;;;7.09;66.41
49877;BME280;35771;48.978;9.294;2023-03-03T16:55:54;99335.47;;;7.12;66.83
49877;BME280;35771;48.978;9.294;2023-03-03T16:58:40;99331.81;;;6.95;67.00
49877;BME280;35771;48.978;9.294;2023-03-03T17:01:16;99338.19;;;6.85;67.08
49877;BME280;35771;48.978;9.294;2023-03-03T17:03:56;99345.88;;;6.80;67.30
49877;BME280;35771;48.978;9.294;2023-03-03T17:06:30;99338.88;;;6.69;67.74
49877;BME280;35771;48.978;9.294;2023-03-03T17:09:19;99342.66;;;6.59;67.27
49877;BME280;35771;48.978;9.294;2023-03-03T17:11:56;99345.31;;;6.50;67.55
49877;BME280;35771;48.978;9.294;2023-03-03T17:14:41;99342.44;;;6.34;68.48
49877;BME280;35771;48.978;9.294;2023-03-03T17:17:21;99355.22;;;6.32;68.90
49877;BME280;35771;48.978;9.294;2023-03-03T17:19:59;99348.31;;;6.29;68.71
49877;BME280;35771;48.978;9.294;2023-03-03T17:22:39;99371.44;;;6.32;69.91
49877;BME280;35771;48.978;9.294;2023-03-03T17:25:11;99372.13;;;6.16;70.08
49877;BME280;35771;48.978;9.294;2023-03-03T17:27:53;99365.22;;;6.03;70.40
49877;BME280;35771;48.978;9.294;2023-03-03T17:30:28;99359.19;;;5.82;71.83
49877;BME280;35771;48.978;9.294;2023-03-03T17:33:08;99381.13;;;5.69;73.19
49877;BME280;35771;48.978;9.294;2023-03-03T17:35:47;99361.44;;;5.59;73.79
49877;BME280;35771;48.978;9.294;2023-03-03T17:38:29;99372.72;;;5.35;74.69
49877;BME280;35771;48.978;9.294;2023-03-03T17:41:02;99398.22;;;5.50;74.75
49877;BME280;35771;48.978;9.294;2023-03-03T17:43:35;99382.84;;;5.23;75.46
49877;BME280;35771;48.978;9.294;2023-03-03T17:46:14;99376.44;;;5.24;76.12
49877;BME280;35771;48.978;9.294;2023-03-03T17:51:55;99392.41;;;4.88;77.62
49877;BME280;35771;48.978;9.294;2023-03-03T17:54:38;99402.72;;;4.83;78.82
49877;BME280;35771;48.978;9.294;2023-03-03T17:57:20;99406.28;;;4.73;78.97
49877;BME280;35771;48.978;9.294;2023-03-03T18:00:02;99394.66;;;4.53;79.50
49877;BME280;35771;48.978;9.294;2023-03-03T18:02:43;99397.31;;;4.34;80.79
49877;BME280;35771;48.978;9.294;2023-03-03T18:05:38;99407.06;;;4.25;81.30
49877;BME280;35771;48.978;9.294;2023-03-03T18:08:18;99422.34;;;4.24;82.35
49877;BME280;35771;48.978;9.294;2023-03-03T18:11:11;99402.28;;;3.88;83.48
49877;BME280;35771;48.978;9.294;2023-03-03T18:16:43;99411.38;;;3.87;84.49
49877;BME280;35771;48.978;9.294;2023-03-03T18:19:30;99438.63;;;4.13;85.83
49877;BME280;35771;48.978;9.294;2023-03-03T18:22:06;99432.50;;;4.01;85.65
49877;BME280;35771;48.978;9.294;2023-03-03T18:24:54;99425.25;;;4.02;85.44
49877;BME280;35771;48.978;9.294;2023-03-03T18:27:32;99446.00;;;4.11;86.40
49877;BME280;35771;48.978;9.294;2023-03-03T18:33:15;99451.94;;;3.84;87.98
49877;BME280;35771;48.978;9.294;2023-03-03T18:36:08;99426.91;;;3.52;88.68
49877;BME280;35771;48.978;9.294;2023-03-03T18:38:37;99456.22;;;3.56;89.11
49877;BME280;35771;48.978;9.294;2023-03-03T18:41:09;99428.63;;;3.32;88.73
49877;BME280;35771;48.978;9.294;2023-03-03T18:43:49;99447.97;;;3.26;89.75
49877;BME280;35771;48.978;9.294;2023-03-03T18:46:43;99461.25;;;3.28;90.80
49877;BME280;35771;48.978;9.294;2023-03-03T18:49:10;99439.59;;;2.87;91.67
49877;BME280;35771;48.978;9.294;2023-03-03T18:51:51;99473.47;;;2.99;91.31
49877;BME280;35771;48.978;9.294;2023-03-03T18:54:38;99467.34;;;2.88;92.04
49877;BME280;35771;48.978;9.294;2023-03-03T18:57:15;99471.38;;;2.82;93.38
49877;BME280;35771;48.978;9.294;2023-03-03T18:59:53;99457.53;;;2.65;93.91
49877;BME280;35771;48.978;9.294;2023-03-03T19:02:29;99494.88;;;2.57;93.69
49877;BME280;35771;48.978;9.294;2023-03-03T19:05:14;99503.09;;;2.44;95.30
49877;BME280;35771;48.978;9.294;2023-03-03T19:07:48;99488.81;;;2.33;96.49
49877;BME280;35771;48.978;9.294;2023-03-03T19:10:46;99465.94;;;2.17;96.84
49877;BME280;35771;48.978;9.294;2023-03-03T19:13:42;99473.47;;;2.12;97.05
49877;BME280;35771;48.978;9.294;2023-03-03T19:16:28;99474.09;;;2.16;96.33
49877;BME280;35771;48.978;9.294;2023-03-03T19:19:00;99465.44;;;1.89;97.52
49877;BME280;35771;48.978;9.294;2023-03-03T19:21:29;99483.13;;;1.92;97.61
49877;BME280;35771;48.978;9.294;2023-03-03T19:23:58;99484.69;;;1.83;100.00
49877;BME280;35771;48.978;9.294;2023-03-03T19:26:36;99470.81;;;1.78;99.69
49877;BME280;35771;48.978;9.294;2023-03-03T19:29:17;99475.94;;;1.81;99.55
49877;BME280;35771;48.978;9.294;2023-03-03T19:31:52;99482.03;;;1.72;99.25
49877;BME280;35771;48.978;9.294;2023-03-03T19:34:27;99493.72;;;1.71;100.00
49877;BME280;35771;48.978;9.294;2023-03-03T19:37:03;99514.31;;;1.70;100.00
49877;BME280;35771;48.978;9.294;2023-03-03T19:39:57;99477.56;;;1.37;100.00
49877;BME280;35771;48.978;9.294;2023-03-03T19:42:35;99504.41;;;1.59;100.00
49877;BME280;35771;48.978;9.294;2023-03-03T19:45:31;99497.84;;;1.52;100.00
49877;BME280;35771;48.978;9.294;2023-03-03T19:48:05;99492.31;;;1.31;100.00
49877;BME280;35771;48.978;9.294;2023-03-03T19:50:45;99492.25;;;1.20;100.00
49877;BME280;35771;48.978;9.294;2023-03-03T19:53:24;99519.81;;;1.22;100.00
49877;BME280;35771;48.978;9.294;2023-03-03T19:56:23;99497.00;;;1.16;100.00
49877;BME280;35771;48.978;9.294;2023-03-03T19:59:02;99491.50;;;1.06;100.00
49877;BME280;35771;48.978;9.294;2023-03-03T20:01:42;99519.97;;;1.08;100.00
49877;BME280;35771;48.978;9.294;2023-03-03T20:07:19;99501.59;;;0.79;100.00
49877;BME280;35771;48.978;9.294;2023-03-03T20:09:53;99509.91;;;0.87;100.00
49877;BME280;35771;48.978;9.294;2023-03-03T20:12:30;99514.56;;;0.96;100.00
49877;BME280;35771;48.978;9.294;2023-03-03T20:15:06;99522.94;;;0.92;100.00
49877;BME280;35771;48.978;9.294;2023-03-03T20:17:45;99501.16;;;0.61;100.00
49877;BME280;35771;48.978;9.294;2023-03-03T20:20:23;99527.91;;;0.61;100.00
49877;BME280;35771;48.978;9.294;2023-03-03T20:23:01;99501.50;;;0.43;100.00
49877;BME280;35771;48.978;9.294;2023-03-03T20:25:36;99513.56;;;0.62;100.00
49877;BME280;35771;48.978;9.294;2023-03-03T20:28:10;99529.16;;;0.68;100.00
49877;BME280;35771;48.978;9.294;2023-03-03T20:30:58;99520.47;;;0.40;100.00
49877;BME280;35771;48.978;9.294;2023-03-03T20:33:40;99555.72;;;0.58;100.00
49877;BME280;35771;48.978;9.294;2023-03-03T20:36:18;99542.81;;;0.52;100.00
49877;BME280;35771;48.978;9.294;2023-03-03T20:38:59;99527.41;;;0.43;100.00
49877;BME280;35771;48.978;9.294;2023-03-03T20:41:41;99532.34;;;0.36;100.00
49877;BME280;35771;48.978;9.294;2023-03-03T20:44:22;99520.75;;;0.11;100.00
49877;BME280;35771;48.978;9.294;2023-03-03T20:46:58;99531.22;;;0.14;100.00
49877;BME280;35771;48.978;9.294;2023-03-03T20:49:40;99551.09;;;0.10;100.00
49877;BME280;35771;48.978;9.294;2023-03-03T20:52:16;99552.38;;;0.17;100.00
49877;BME280;35771;48.978;9.294;2023-03-03T20:54:50;99542.25;;;-0.03;100.00
